Track Божко Екатерина

Time Latitude Longitude Accuracy (66% radius in meters) Altitude (meters) Speed (km/hour) Bearing (degrees) Battery (%) GPS flag
10:26:26 44.558953 38.197439 16 94.141554015322 0.0038302466273308 149.3826751709 67 1 delete
10:26:14 44.558957 38.197446 12 95.068192423053 0 149.3826751709 67 1 delete
10:26:02 44.558957 38.197446 8 95.02491372673 0.35761234164238 149.3826751709 67 1 delete
10:25:50 44.558957 38.197446 16 95.872872508632 0.36606958508492 149.3826751709 67 1 delete
10:25:41 44.558957 38.197446 8 95.847520377655 0 149.3826751709 67 1 delete
10:25:29 44.558959 38.197450 6 96.085692947893 0.20542901754379 329.00866699219 67 1 delete
10:25:17 44.558954 38.197429 8 97.835830123945 0.048500768840313 348.98641967773 67 1 delete
10:25:08 44.558950 38.197455 12 99.273132800085 0 318.11514282227 67 1 delete
10:25:05 44.558914 38.197502 8 100.32554196491 2.6982760429382 310.63931274414 67 1 delete
10:25:02 44.558848 38.197616 8 101.43537433422 2.4296243190765 315.38409423828 67 1 delete
10:24:59 44.558804 38.197697 6 102.8324404036 2.4602835178375 330.92489624023 67 1 delete
10:24:56 44.558730 38.197777 6 104.26425251868 2.2472882270813 324.95571899414 67 1 delete
10:24:53 44.558671 38.197915 8 105.88833702829 2.0316007137299 305.40628051758 67 1 delete
10:24:47 44.558649 38.198111 12 109.8778481401 1.8920383453369 285.2311706543 67 1 delete
10:24:44 44.558656 38.198183 12 112.1094839907 1.7942515611649 262.4856262207 67 1 delete
10:24:41 44.558681 38.198275 12 114.08811097636 1.5175166130066 229.38473510742 67 1 delete
10:24:38 44.558696 38.198371 12 115.47932857674 1.4056220054626 218.19180297852 67 1 delete
10:24:32 44.558755 38.198442 12 117.69765499888 1.1496086120605 232.34776306152 67 1 delete
10:24:29 44.558795 38.198472 12 118.73177426671 0.83381253480911 224.35957336426 67 1 delete
10:24:23 44.558816 38.198518 8 121.53448719384 0.97915560007095 282.03536987305 67 1 delete
10:24:17 44.558824 38.198587 16 123.85722041903 0.97486293315887 257.94833374023 67 1 delete
10:24:14 44.558849 38.198653 8 124.92128977579 0.92914921045303 239.14463806152 67 1 delete
10:24:11 44.558896 38.198717 8 125.76969247 0.89734208583832 224.64350891113 67 1 delete
10:24:02 44.558964 38.198777 8 127.3970478451 0.51043218374252 237.91059875488 67 1 delete
10:23:53 44.558985 38.198833 8 129.81641884956 1.2798898220062 263.07641601562 67 1 delete
10:23:50 44.558981 38.198855 8 130.70210647323 1.4212235212326 298.74459838867 67 1 delete
10:23:47 44.558951 38.198890 8 131.66789447142 1.5457022190094 302.46859741211 67 1 delete
10:23:44 44.558914 38.198954 12 132.5934791206 1.4780621528625 320.96789550781 67 1 delete
10:23:41 44.558873 38.199023 12 133.3776441249 1.4297888278961 293.8864440918 67 1 delete
10:23:38 44.558850 38.199100 8 134.13738585971 1.3789712190628 279.00213623047 67 1 delete
10:23:35 44.558833 38.199162 12 134.89227390034 1.3618696928024 288.11932373047 67 1 delete
10:23:32 44.558810 38.199246 8 135.92818758018 1.127944111824 266.97274780273 67 1 delete
10:23:29 44.558803 38.199326 8 136.76226642609 0.95891290903091 260.25088500977 67 1 delete
10:23:26 44.558799 38.199383 12 137.49869630381 1.0686819553375 289.97677612305 67 1 delete
10:23:20 44.558818 38.199498 8 138.87431874829 0.98724853992462 233.83117675781 67 1 delete
10:23:17 44.558835 38.199529 12 139.67083589013 0.9443319439888 250.17437744141 67 1 delete
10:23:14 44.558853 38.199575 8 140.51063044596 0.85831266641617 235.69789123535 67 1 delete
10:23:08 44.558873 38.199640 8 142.19928402385 0.76408767700195 247.62643432617 67 1 delete
10:23:05 44.558877 38.199678 8 142.85968858194 0.87830322980881 279.37442016602 67 1 delete
10:23:02 44.558888 38.199718 12 143.37472731977 1.042248249054 301.86337280273 67 1 delete
10:22:56 44.558871 38.199818 8 144.63445822772 1.0875012874603 297.24731445312 67 1 delete
10:22:53 44.558870 38.199861 8 145.32940850347 1.163726568222 253.79737854004 67 1 delete
10:22:50 44.558879 38.199918 6 145.6352177408 1.2076117992401 255.35763549805 67 1 delete
10:22:44 44.558869 38.200026 8 146.4278589608 1.2338213920593 287.52926635742 67 1 delete
10:22:41 44.558862 38.200084 8 146.68618572763 1.2862693071365 309.24240112305 67 1 delete
10:22:38 44.558856 38.200108 8 147.02963390612 1.479877948761 249.70530700684 67 1 delete
10:22:32 44.558905 38.200193 8 147.89478133437 1.7689065933228 236.15760803223 67 1 delete
10:22:29 44.558932 38.200269 12 148.23534627692 1.753432393074 246.43240356445 67 1 delete
10:22:23 44.559030 38.200351 8 148.64273657918 2.0707545280457 180.30770874023 67 1 delete
10:22:20 44.559090 38.200361 6 148.85674346091 2.0634474754333 179.54969787598 67 1 delete